Time;durP1;ratioP1;P1;durP2;ratioP2;P2;SDS_P1;SDS_P2;PMS_P1;PMS_P2;Temp;Humidity;BMP_temperature;BMP_pressure;BME280_temperature;BME280_humidity;BME280_pressure;Samples;Min_cycle;Max_cycle;Signal;HPM_P1;HPM_P2
2021/01/21 00:01:26;;;;;;;3.88;2.20;;;9.70;83.90;;;;;;5133909;28;20035;-61
2021/01/21 00:03:52;;;;;;;4.30;2.30;;;9.60;84.30;;;;;;5134167;27;20066;-61
2021/01/21 00:06:18;;;;;;;4.38;2.25;;;9.60;84.30;;;;;;5133750;27;20504;-61
2021/01/21 00:08:43;;;;;;;5.70;2.58;;;9.60;83.80;;;;;;5133731;27;20049;-61
2021/01/21 00:11:09;;;;;;;7.28;2.63;;;9.70;83.80;;;;;;5134019;27;20043;-61
2021/01/21 00:13:35;;;;;;;4.97;2.28;;;9.70;83.70;;;;;;5133713;27;20033;-60
2021/01/21 00:16:01;;;;;;;3.85;2.15;;;9.70;83.70;;;;;;5133931;28;20073;-60
2021/01/21 00:18:27;;;;;;;7.57;2.30;;;9.70;83.50;;;;;;5134367;27;20043;-61
2021/01/21 00:20:53;;;;;;;5.35;2.05;;;9.70;83.50;;;;;;5131315;27;20047;-60
2021/01/21 00:23:18;;;;;;;5.63;1.90;;;9.80;82.90;;;;;;5113141;28;20047;-61
2021/01/21 00:25:44;;;;;;;6.68;2.03;;;9.80;82.60;;;;;;5113345;28;20047;-61
2021/01/21 00:28:10;;;;;;;3.65;2.20;;;9.80;82.80;;;;;;5113325;28;20046;-61
2021/01/21 00:30:35;;;;;;;4.35;2.08;;;9.80;82.60;;;;;;5113076;28;20043;-61
2021/01/21 00:33:02;;;;;;;4.50;2.20;;;9.80;82.50;;;;;;5112717;28;20043;-61
2021/01/21 00:35:28;;;;;;;8.18;2.20;;;9.80;82.40;;;;;;5113332;28;20078;-60
2021/01/21 00:37:54;;;;;;;4.60;1.90;;;9.80;82.40;;;;;;5113058;28;20071;-61
2021/01/21 00:40:19;;;;;;;6.40;2.20;;;9.80;82.20;;;;;;5112619;28;20047;-61
2021/01/21 00:42:45;;;;;;;4.82;1.90;;;9.70;82.30;;;;;;5112940;28;20039;-61
2021/01/21 00:45:11;;;;;;;4.82;1.88;;;9.70;82.40;;;;;;5112980;28;20047;-61
2021/01/21 00:47:36;;;;;;;5.53;2.45;;;9.70;82.30;;;;;;5112963;28;20127;-60
2021/01/21 00:50:03;;;;;;;4.25;2.03;;;9.70;82.30;;;;;;5113279;28;20170;-60
2021/01/21 00:52:29;;;;;;;3.90;1.90;;;9.70;82.70;;;;;;5112690;28;20043;-60
2021/01/21 00:54:54;;;;;;;3.30;1.70;;;9.70;82.50;;;;;;5115201;28;20039;-61
2021/01/21 00:57:20;;;;;;;2.45;1.73;;;9.60;82.60;;;;;;5116775;28;20120;-60
2021/01/21 00:59:46;;;;;;;3.63;1.92;;;9.60;82.80;;;;;;5116389;28;20051;-60
2021/01/21 01:02:12;;;;;;;6.00;1.98;;;9.60;83.10;;;;;;5116901;28;20088;-61
2021/01/21 01:04:38;;;;;;;4.60;1.88;;;9.60;82.50;;;;;;5116737;28;20040;-60
2021/01/21 01:07:05;;;;;;;4.82;1.80;;;9.60;82.80;;;;;;5116641;28;20505;-61
2021/01/21 01:09:30;;;;;;;3.85;1.55;;;9.50;83.40;;;;;;5116532;28;20060;-61
2021/01/21 01:11:56;;;;;;;6.43;2.08;;;9.50;82.90;;;;;;5116080;28;20126;-61
2021/01/21 01:14:22;;;;;;;3.72;1.70;;;9.50;83.40;;;;;;5116715;28;20044;-61
2021/01/21 01:16:48;;;;;;;4.20;1.75;;;9.50;83.20;;;;;;5116412;28;20488;-60
2021/01/21 01:19:13;;;;;;;3.90;2.08;;;9.60;82.90;;;;;;5116198;28;20040;-61
2021/01/21 01:21:40;;;;;;;4.90;1.67;;;9.50;82.70;;;;;;5116378;28;20044;-60
2021/01/21 01:24:06;;;;;;;5.07;1.90;;;9.60;82.70;;;;;;5115553;28;20145;-61
2021/01/21 01:26:32;;;;;;;6.25;1.90;;;9.50;82.80;;;;;;5116136;28;20053;-60
2021/01/21 01:28:58;;;;;;;3.85;1.35;;;9.60;82.90;;;;;;5115917;28;20126;-60
2021/01/21 01:31:23;;;;;;;4.30;1.67;;;9.60;82.10;;;;;;5115581;28;20044;-61
2021/01/21 01:33:49;;;;;;;3.83;1.83;;;9.70;81.70;;;;;;5115618;28;20055;-61
2021/01/21 01:36:15;;;;;;;5.30;1.40;;;9.70;82.20;;;;;;5115459;28;20400;-61
2021/01/21 01:38:41;;;;;;;5.60;1.90;;;9.70;81.40;;;;;;5115787;28;20532;-61
2021/01/21 01:41:06;;;;;;;3.22;1.30;;;9.80;81.20;;;;;;5115126;28;20039;-61
2021/01/21 01:43:32;;;;;;;1.98;1.63;;;9.70;81.00;;;;;;5115649;28;20059;-61
2021/01/21 01:45:58;;;;;;;3.95;1.50;;;9.60;81.40;;;;;;5115180;28;20040;-61
2021/01/21 01:48:24;;;;;;;3.92;1.42;;;9.70;81.40;;;;;;5115277;28;20050;-61
2021/01/21 01:50:49;;;;;;;5.60;1.38;;;9.60;81.70;;;;;;5115521;28;20477;-60
2021/01/21 01:53:15;;;;;;;5.55;1.45;;;9.70;81.20;;;;;;5115092;28;20094;-60
2021/01/21 01:55:41;;;;;;;4.50;1.80;;;9.70;81.10;;;;;;5115137;28;20508;-61
2021/01/21 01:58:12;;;;;;;6.30;1.70;;;9.60;81.30;;;;;;5115597;28;20152;-62
2021/01/21 02:00:38;;;;;;;3.70;1.73;;;9.60;81.00;;;;;;5115103;28;20046;-61
2021/01/21 02:03:04;;;;;;;4.30;1.33;;;9.70;80.70;;;;;;5114873;28;20044;-61
2021/01/21 02:05:30;;;;;;;8.18;1.80;;;9.70;80.70;;;;;;5114018;28;20039;-61
2021/01/21 02:07:57;;;;;;;6.18;1.70;;;9.70;80.70;;;;;;5115499;28;20445;-61
2021/01/21 02:10:23;;;;;;;3.22;1.55;;;9.60;80.80;;;;;;5115428;27;20743;-61
2021/01/21 02:13:07;;;;;;;2.55;1.30;;;9.80;80.10;;;;;;5115044;28;20043;-60
2021/01/21 02:15:58;;;;;;;3.50;1.83;;;9.80;80.30;;;;;;5115185;28;20047;-60
2021/01/21 02:18:38;;;;;;;4.93;1.50;;;9.80;80.30;;;;;;5114640;28;20071;-61
2021/01/21 02:21:39;;;;;;;10.52;1.83;;;9.90;79.70;;;;;;5115090;28;20044;-61
2021/01/21 02:24:18;;;;;;;4.68;1.65;;;9.90;79.60;;;;;;5071365;28;20106;-60
2021/01/21 02:26:50;;;;;;;2.67;1.38;;;10.00;79.50;;;;;;5071948;28;20534;-61
2021/01/21 02:29:29;;;;;;;2.42;1.60;;;10.00;79.80;;;;;;5074501;28;20052;-61
2021/01/21 02:32:08;;;;;;;4.75;1.40;;;10.10;78.90;;;;;;5092009;28;20044;-61
2021/01/21 02:34:55;;;;;;;3.45;1.60;;;10.10;78.40;;;;;;5091910;28;20409;-61
2021/01/21 02:37:28;;;;;;;6.25;1.50;;;10.10;78.30;;;;;;5091701;28;20047;-61
2021/01/21 02:40:04;;;;;;;4.22;1.50;;;10.20;77.80;;;;;;5091604;28;20048;-61
2021/01/21 02:42:43;;;;;;;5.75;1.98;;;10.20;77.60;;;;;;5091437;28;20123;-61
2021/01/21 02:45:10;;;;;;;5.50;1.43;;;10.20;78.00;;;;;;5091458;28;20418;-60
2021/01/21 02:47:35;;;;;;;3.50;1.33;;;10.20;77.80;;;;;;5091400;28;20075;-61
2021/01/21 02:50:01;;;;;;;4.57;1.17;;;10.30;77.60;;;;;;5091253;28;20416;-61
2021/01/21 02:52:40;;;;;;;4.78;1.35;;;10.40;76.40;;;;;;5091249;28;20072;-60
2021/01/21 02:55:06;;;;;;;5.57;1.60;;;10.40;76.70;;;;;;5091340;28;20048;-61
2021/01/21 02:57:40;;;;;;;2.45;1.30;;;10.40;76.70;;;;;;5097603;28;20408;-61
2021/01/21 03:00:11;;;;;;;3.20;1.48;;;10.50;76.10;;;;;;5113899;28;20035;-61
2021/01/21 03:02:44;;;;;;;3.30;1.63;;;10.40;75.90;;;;;;5113452;28;20043;-60
2021/01/21 03:05:12;;;;;;;3.92;1.48;;;10.50;75.50;;;;;;5113708;28;20043;-61
2021/01/21 03:07:39;;;;;;;5.45;1.30;;;10.60;74.60;;;;;;5114137;28;20070;-62
2021/01/21 03:10:08;;;;;;;2.78;1.38;;;10.60;75.00;;;;;;5113967;28;20122;-61
2021/01/21 03:12:34;;;;;;;;;;;10.60;74.70;;;;;;5114391;28;20055;-61
2021/01/21 03:15:00;;;;;;;5.90;2.28;;;10.70;74.60;;;;;;5113107;28;20265;-60
2021/01/21 03:17:27;;;;;;;3.65;1.73;;;10.70;74.80;;;;;;5113256;28;20065;-61
2021/01/21 03:19:53;;;;;;;3.25;1.30;;;10.70;74.30;;;;;;5113326;28;20089;-61
2021/01/21 03:22:19;;;;;;;1.67;1.10;;;10.60;75.00;;;;;;5113348;28;20066;-61
2021/01/21 03:24:45;;;;;;;5.25;1.50;;;10.60;75.50;;;;;;5113139;28;20051;-61
2021/01/21 03:27:11;;;;;;;2.88;1.33;;;10.70;75.00;;;;;;5113282;28;20043;-60
2021/01/21 03:29:37;;;;;;;3.13;1.27;;;10.70;74.80;;;;;;5113018;28;20450;-61
2021/01/21 03:32:04;;;;;;;5.95;1.35;;;10.80;74.60;;;;;;5113238;28;20044;-61
2021/01/21 03:34:30;;;;;;;3.20;1.33;;;10.70;76.40;;;;;;5112987;28;20050;-61
2021/01/21 03:36:56;;;;;;;3.85;1.48;;;10.60;78.00;;;;;;5112892;28;20067;-61
2021/01/21 03:39:22;;;;;;;3.03;1.17;;;10.50;78.40;;;;;;5113056;28;20100;-61
2021/01/21 03:41:49;;;;;;;1.88;0.98;;;10.60;77.60;;;;;;5113120;28;20389;-60
2021/01/21 03:44:15;;;;;;;5.70;1.30;;;10.50;77.70;;;;;;5113022;28;20078;-61
2021/01/21 03:46:41;;;;;;;3.15;0.82;;;10.60;77.70;;;;;;5112865;28;20074;-61
2021/01/21 03:49:07;;;;;;;5.63;1.40;;;10.50;77.30;;;;;;5112670;28;20047;-61
2021/01/21 03:51:32;;;;;;;2.85;1.30;;;10.50;77.50;;;;;;5113420;28;20043;-61
2021/01/21 03:53:58;;;;;;;1.42;1.10;;;10.50;77.00;;;;;;5112861;28;20154;-61
2021/01/21 03:56:24;;;;;;;4.25;1.67;;;10.70;76.10;;;;;;5112682;28;20052;-60
2021/01/21 03:58:49;;;;;;;2.90;1.17;;;10.70;76.70;;;;;;5112945;28;20043;-60
2021/01/21 04:01:15;;;;;;;3.70;1.55;;;10.70;76.30;;;;;;5112607;28;20404;-61
2021/01/21 04:03:41;;;;;;;4.35;1.30;;;10.70;76.20;;;;;;5112692;28;20397;-60
2021/01/21 04:06:06;;;;;;;3.28;1.10;;;10.70;76.10;;;;;;5112690;28;20056;-60
2021/01/21 04:08:32;;;;;;;3.80;1.17;;;10.70;76.10;;;;;;5112973;28;20051;-61
2021/01/21 04:10:58;;;;;;;6.07;1.48;;;10.70;76.20;;;;;;5112983;28;20118;-61
2021/01/21 04:13:24;;;;;;;2.35;1.20;;;10.70;76.60;;;;;;5112870;28;20047;-61
2021/01/21 04:15:50;;;;;;;2.50;1.15;;;10.70;76.10;;;;;;5112586;28;20062;-61
2021/01/21 04:18:16;;;;;;;3.00;1.00;;;10.80;76.00;;;;;;5113018;28;20077;-61
2021/01/21 04:20:42;;;;;;;2.40;1.05;;;10.80;76.40;;;;;;5112556;28;20514;-61
2021/01/21 04:23:07;;;;;;;3.58;1.10;;;10.80;78.00;;;;;;5112557;28;20070;-61
2021/01/21 04:25:34;;;;;;;3.03;1.48;;;10.70;80.50;;;;;;5112946;28;20068;-61
2021/01/21 04:27:59;;;;;;;4.57;1.30;;;10.60;81.50;;;;;;5113832;28;20124;-61
2021/01/21 04:30:26;;;;;;;5.85;1.38;;;10.50;82.30;;;;;;5117035;28;20491;-62
2021/01/21 04:32:51;;;;;;;3.42;1.45;;;10.30;84.50;;;;;;5117143;28;20123;-61
2021/01/21 04:35:18;;;;;;;3.80;1.42;;;10.20;86.90;;;;;;5117545;28;20075;-61
2021/01/21 04:37:45;;;;;;;5.78;1.88;;;10.00;89.20;;;;;;5117509;28;20051;-61
2021/01/21 04:40:12;;;;;;;3.95;1.73;;;9.80;89.40;;;;;;5117408;27;20048;-62
2021/01/21 04:42:37;;;;;;;3.55;1.35;;;9.80;90.00;;;;;;5117427;28;20041;-61
2021/01/21 04:45:05;;;;;;;2.80;1.10;;;9.80;90.00;;;;;;5117560;28;20496;-61
2021/01/21 04:47:31;;;;;;;2.55;1.35;;;9.70;90.60;;;;;;5117132;28;20071;-61
2021/01/21 04:49:58;;;;;;;2.05;1.05;;;9.70;90.60;;;;;;5117382;28;20054;-61
2021/01/21 04:52:26;;;;;;;1.90;1.13;;;9.60;91.10;;;;;;5117211;28;20127;-61
2021/01/21 04:54:58;;;;;;;5.70;1.75;;;9.50;91.50;;;;;;5117118;28;20043;-61
2021/01/21 04:57:38;;;;;;;3.72;1.33;;;9.50;91.80;;;;;;5116961;28;20044;-62
2021/01/21 05:00:05;;;;;;;3.13;1.52;;;9.40;92.30;;;;;;5117185;28;20096;-61
2021/01/21 05:02:32;;;;;;;2.72;1.25;;;9.50;92.50;;;;;;5116945;28;20477;-61
2021/01/21 05:04:58;;;;;;;3.60;1.90;;;9.40;92.90;;;;;;5117158;28;20042;-61
2021/01/21 05:07:25;;;;;;;2.38;0.93;;;9.20;94.90;;;;;;5116896;28;20122;-61
2021/01/21 05:09:52;;;;;;;4.75;1.48;;;8.80;90.10;;;;;;5117084;28;20047;-61
2021/01/21 05:12:17;;;;;;;1.73;0.70;;;8.70;89.30;;;;;;5117039;28;20046;-61
2021/01/21 05:14:43;;;;;;;2.90;0.80;;;8.30;91.80;;;;;;5116834;28;20393;-61
2021/01/21 05:17:09;;;;;;;3.60;0.60;;;8.30;91.20;;;;;;5116837;28;20078;-61
2021/01/21 05:19:35;;;;;;;8.13;0.65;;;8.10;91.30;;;;;;5116985;28;20050;-61
2021/01/21 05:22:02;;;;;;;2.40;0.60;;;8.10;87.70;;;;;;5116533;28;20110;-61
2021/01/21 05:24:28;;;;;;;6.07;0.93;;;8.00;90.50;;;;;;5116496;27;20040;-61
2021/01/21 05:26:55;;;;;;;7.07;0.75;;;7.80;90.20;;;;;;5116473;28;20047;-61
2021/01/21 05:29:21;;;;;;;8.55;1.05;;;7.70;90.20;;;;;;5116343;28;20397;-60
2021/01/21 05:31:48;;;;;;;7.18;1.40;;;7.70;88.20;;;;;;5116503;28;20051;-60
2021/01/21 05:34:17;;;;;;;4.22;0.85;;;7.70;89.20;;;;;;5116623;28;20061;-61
2021/01/21 05:36:43;;;;;;;;;;;7.60;88.30;;;;;;5116523;28;20071;-61
2021/01/21 05:39:10;;;;;;;7.03;1.65;;;7.40;91.20;;;;;;5116386;28;19919;-60
2021/01/21 05:41:37;;;;;;;9.20;1.13;;;7.30;91.10;;;;;;5116538;28;20385;-60
2021/01/21 05:44:06;;;;;;;12.32;1.10;;;7.20;90.50;;;;;;5116310;28;20068;-60
2021/01/21 05:46:35;;;;;;;13.93;1.60;;;7.10;91.00;;;;;;5116446;28;20389;-60
2021/01/21 05:49:02;;;;;;;7.60;1.58;;;7.00;90.50;;;;;;5116397;28;20054;-60
2021/01/21 05:51:28;;;;;;;5.35;1.17;;;6.90;91.00;;;;;;5116217;28;20047;-60
2021/01/21 05:53:55;;;;;;;7.85;1.30;;;6.90;91.50;;;;;;5116285;28;20052;-60
2021/01/21 05:56:28;;;;;;;5.05;1.20;;;7.00;90.50;;;;;;5115687;28;20051;-60
2021/01/21 05:58:54;;;;;;;6.38;1.80;;;6.90;91.20;;;;;;5118539;27;20043;-60
2021/01/21 06:01:21;;;;;;;11.48;1.67;;;7.00;90.70;;;;;;5116135;28;20043;-60
2021/01/21 06:03:48;;;;;;;6.57;1.20;;;7.00;91.20;;;;;;5116115;27;20039;-60
2021/01/21 06:06:15;;;;;;;7.75;1.60;;;6.90;91.50;;;;;;5115804;28;20044;-60
2021/01/21 06:08:42;;;;;;;6.45;1.33;;;6.90;91.00;;;;;;5115975;28;20046;-60
2021/01/21 06:11:08;;;;;;;7.68;1.48;;;7.00;91.40;;;;;;5115938;28;20067;-60
2021/01/21 06:13:45;;;;;;;13.00;1.85;;;6.90;91.30;;;;;;5115806;28;20047;-60
2021/01/21 06:16:11;;;;;;;12.10;1.80;;;6.90;92.20;;;;;;5116131;27;20089;-60
2021/01/21 06:18:37;;;;;;;11.93;1.92;;;6.90;92.20;;;;;;5130814;27;20059;-60
2021/01/21 06:21:05;;;;;;;6.28;1.70;;;6.80;92.60;;;;;;5125091;27;20390;-59
2021/01/21 06:23:33;;;;;;;9.45;1.35;;;6.80;91.20;;;;;;5127795;27;20547;-60
2021/01/21 06:26:00;;;;;;;3.50;0.93;;;6.70;90.70;;;;;;5136000;27;20043;-60
2021/01/21 06:28:27;;;;;;;5.90;1.23;;;6.70;87.60;;;;;;5135985;27;20122;-59
2021/01/21 06:30:58;;;;;;;6.18;0.82;;;6.70;85.00;;;;;;5135797;27;20499;-60
2021/01/21 06:33:31;;;;;;;5.78;1.15;;;6.60;86.10;;;;;;5135859;27;20039;-60
2021/01/21 06:36:06;;;;;;;4.07;0.70;;;6.50;85.30;;;;;;5133598;27;20107;-61
2021/01/21 06:38:42;;;;;;;3.72;0.90;;;6.50;85.90;;;;;;5135256;27;20396;-60
2021/01/21 06:41:14;;;;;;;3.83;0.95;;;6.30;86.60;;;;;;5133046;27;20054;-60
2021/01/21 06:43:40;;;;;;;5.97;1.05;;;6.20;85.90;;;;;;5134833;27;20039;-60
2021/01/21 06:46:13;;;;;;;6.95;1.25;;;6.10;87.60;;;;;;5132274;27;20481;-60
2021/01/21 06:48:40;;;;;;;6.88;1.15;;;6.00;87.20;;;;;;5135415;27;20445;-60
2021/01/21 06:51:11;;;;;;;4.82;1.20;;;5.90;88.60;;;;;;5132045;27;20117;-60
2021/01/21 06:53:43;;;;;;;10.68;1.40;;;5.90;87.80;;;;;;5136630;27;20122;-59
2021/01/21 06:56:09;;;;;;;15.20;2.05;;;5.80;89.60;;;;;;5137741;27;20054;-60
2021/01/21 06:58:47;;;;;;;6.90;1.20;;;5.80;89.90;;;;;;5149383;27;20471;-59
2021/01/21 07:01:38;;;;;;;13.55;1.70;;;5.80;89.90;;;;;;5147003;27;20042;-60
2021/01/21 07:04:04;;;;;;;10.65;1.65;;;5.80;89.50;;;;;;5131276;27;20050;-60
2021/01/21 07:06:56;;;;;;;9.85;1.42;;;5.80;89.90;;;;;;5156097;27;20042;-60
2021/01/21 07:09:24;;;;;;;11.00;1.70;;;5.70;90.20;;;;;;5148022;27;20122;-60
2021/01/21 07:11:53;;;;;;;6.55;1.50;;;5.70;90.10;;;;;;5145406;27;20041;-60
2021/01/21 07:14:24;;;;;;;9.75;1.27;;;5.70;89.10;;;;;;5143311;27;20039;-60
2021/01/21 07:16:55;;;;;;;7.18;1.52;;;5.70;89.10;;;;;;5151671;27;20480;-59
2021/01/21 07:19:40;;;;;;;5.72;1.17;;;5.70;88.50;;;;;;5124058;27;20472;-59
2021/01/21 07:22:18;;;;;;;6.97;1.80;;;5.70;88.60;;;;;;5145142;27;20066;-60
2021/01/21 07:24:56;;;;;;;9.27;1.38;;;5.60;89.00;;;;;;5150969;27;20049;-59
2021/01/21 07:27:24;;;;;;;8.77;1.48;;;5.60;88.60;;;;;;5123058;27;20086;-59
2021/01/21 07:30:10;;;;;;;9.80;1.10;;;5.60;89.10;;;;;;5147173;27;20038;-59
2021/01/21 07:32:35;;;;;;;9.35;1.95;;;5.60;87.00;;;;;;5141321;27;20066;-59
2021/01/21 07:35:01;;;;;;;7.30;1.17;;;5.60;88.90;;;;;;5135430;27;20086;-59
2021/01/21 07:37:32;;;;;;;12.30;1.48;;;5.60;88.60;;;;;;5150134;27;20035;-59
2021/01/21 07:40:04;;;;;;;7.25;1.40;;;5.60;86.70;;;;;;5143990;27;20046;-59
2021/01/21 07:42:33;;;;;;;6.05;1.27;;;5.60;88.10;;;;;;5141372;27;20051;-59
2021/01/21 07:45:06;;;;;;;12.77;1.70;;;5.50;88.80;;;;;;5151501;27;20042;-59
2021/01/21 07:47:33;;;;;;;7.20;1.70;;;5.60;88.50;;;;;;5128108;27;20409;-59
2021/01/21 07:50:17;;;;;;;13.27;2.47;;;5.50;89.10;;;;;;5134604;28;20126;-59
2021/01/21 07:52:44;;;;;;;6.90;1.38;;;5.60;87.80;;;;;;5138085;27;20111;-60
2021/01/21 07:55:11;;;;;;;8.82;1.33;;;5.70;88.30;;;;;;5134964;27;20453;-59
2021/01/21 07:57:37;;;;;;;4.97;1.10;;;5.60;88.40;;;;;;5121307;27;20087;-59
2021/01/21 08:00:10;;;;;;;8.10;1.77;;;5.70;88.50;;;;;;5140058;27;20042;-59
2021/01/21 08:02:50;;;;;;;9.20;2.03;;;5.70;88.40;;;;;;5139210;27;20392;-59
2021/01/21 08:05:23;;;;;;;10.23;1.90;;;5.70;88.30;;;;;;5144867;27;20074;-59
2021/01/21 08:07:50;;;;;;;13.70;1.83;;;5.80;88.70;;;;;;5159264;27;20043;-60
2021/01/21 08:10:22;;;;;;;12.18;2.13;;;5.80;89.50;;;;;;5159105;27;20034;-59
2021/01/21 08:12:56;;;;;;;16.55;2.70;;;5.90;88.70;;;;;;5159271;27;20039;-59
2021/01/21 08:15:24;;;;;;;14.55;2.58;;;5.90;89.60;;;;;;5144476;27;20042;-60
2021/01/21 08:17:51;;;;;;;13.38;1.85;;;5.80;89.50;;;;;;5140354;27;20054;-57
2021/01/21 08:20:18;;;;;;;8.57;1.75;;;5.80;90.00;;;;;;5137165;27;20045;-56
2021/01/21 08:23:10;;;;;;;16.92;2.95;;;5.90;88.90;;;;;;5141047;27;20543;-56
2021/01/21 08:25:41;;;;;;;10.73;2.03;;;5.90;88.10;;;;;;5132612;27;20067;-57
2021/01/21 08:28:07;;;;;;;10.50;2.30;;;5.90;88.30;;;;;;5141032;27;20081;-57
2021/01/21 08:30:33;;;;;;;8.88;2.10;;;5.90;87.70;;;;;;5138569;27;20484;-57
2021/01/21 08:33:07;;;;;;;9.85;2.00;;;6.00;86.90;;;;;;5138679;27;20049;-57
2021/01/21 08:35:37;;;;;;;3.80;1.42;;;6.00;86.40;;;;;;5137081;27;20081;-57
2021/01/21 08:38:05;;;;;;;9.27;1.80;;;6.10;85.90;;;;;;5136613;27;20070;-57
2021/01/21 08:40:32;;;;;;;11.15;2.25;;;6.30;84.00;;;;;;5136995;27;20047;-56
2021/01/21 08:42:59;;;;;;;13.02;2.15;;;6.30;83.00;;;;;;5136747;27;20058;-57
2021/01/21 08:45:29;;;;;;;9.27;1.70;;;6.40;83.60;;;;;;5136516;27;20051;-57
2021/01/21 08:47:55;;;;;;;7.65;1.20;;;6.60;83.10;;;;;;5136739;27;20039;-57
2021/01/21 08:50:22;;;;;;;6.55;1.50;;;6.50;83.70;;;;;;5136229;27;20043;-57
2021/01/21 08:53:01;;;;;;;9.55;1.60;;;6.70;82.70;;;;;;5136557;27;20042;-57
2021/01/21 08:55:38;;;;;;;11.67;1.47;;;6.70;82.10;;;;;;5136367;27;20064;-56
2021/01/21 08:58:04;;;;;;;6.80;1.48;;;6.70;81.10;;;;;;5136368;27;20692;-56
2021/01/21 09:00:31;;;;;;;12.38;1.88;;;6.80;81.10;;;;;;5136476;27;20127;-57
2021/01/21 09:03:00;;;;;;;13.20;2.13;;;6.80;81.30;;;;;;5136466;27;20062;-57
2021/01/21 09:05:28;;;;;;;7.70;1.60;;;6.80;80.70;;;;;;5136269;27;20043;-57
2021/01/21 09:08:09;;;;;;;8.13;1.52;;;6.80;80.30;;;;;;5136224;27;20054;-56
2021/01/21 09:10:39;;;;;;;9.35;1.63;;;6.70;80.20;;;;;;5135902;27;20070;-57
2021/01/21 09:13:05;;;;;;;10.60;1.88;;;6.60;81.10;;;;;;5136316;27;20092;-57
2021/01/21 09:15:46;;;;;;;10.40;1.67;;;6.60;82.10;;;;;;5135374;27;20043;-56
2021/01/21 09:18:12;;;;;;;11.23;1.88;;;6.70;82.20;;;;;;5135936;27;20039;-57
2021/01/21 09:20:37;;;;;;;8.52;1.80;;;6.50;81.90;;;;;;5135780;27;20484;-56
2021/01/21 09:23:20;;;;;;;3.92;1.50;;;6.50;81.70;;;;;;5135753;27;20113;-56
2021/01/21 09:25:48;;;;;;;8.43;1.50;;;6.50;81.20;;;;;;5136331;27;20050;-56
2021/01/21 09:28:14;;;;;;;6.75;1.90;;;6.50;81.50;;;;;;5135981;27;20105;-56
2021/01/21 09:30:40;;;;;;;8.27;2.47;;;6.60;80.30;;;;;;5135976;27;20137;-56
2021/01/21 09:33:07;;;;;;;8.02;1.60;;;6.60;79.80;;;;;;5135949;27;20050;-57
2021/01/21 09:35:33;;;;;;;6.13;1.55;;;6.70;80.40;;;;;;5135572;27;20531;-56
2021/01/21 09:38:00;;;;;;;7.45;1.98;;;6.70;79.70;;;;;;5135620;27;20061;-56
2021/01/21 09:40:31;;;;;;;8.88;1.60;;;6.60;79.80;;;;;;5135618;27;20046;-56
2021/01/21 09:42:59;;;;;;;8.15;1.52;;;6.60;79.90;;;;;;5135533;27;20043;-57
2021/01/21 09:45:27;;;;;;;10.27;1.70;;;6.60;79.80;;;;;;5135603;27;20393;-56
2021/01/21 09:47:54;;;;;;;11.95;1.85;;;6.60;80.70;;;;;;5135390;27;20430;-56
2021/01/21 09:50:20;;;;;;;7.95;2.35;;;6.50;80.50;;;;;;5135214;27;20035;-56
2021/01/21 09:52:46;;;;;;;9.02;1.70;;;6.60;80.70;;;;;;5133570;27;20051;-57
2021/01/21 09:55:13;;;;;;;9.13;1.88;;;6.60;80.40;;;;;;5134907;27;20043;-56
2021/01/21 09:57:39;;;;;;;6.10;1.52;;;6.60;80.80;;;;;;5135305;27;20092;-56
2021/01/21 10:00:10;;;;;;;9.35;2.08;;;6.60;80.10;;;;;;5135404;27;20058;-56
2021/01/21 10:02:36;;;;;;;5.75;1.30;;;6.70;79.90;;;;;;5135044;27;20054;-56
2021/01/21 10:05:02;;;;;;;7.63;1.73;;;6.80;79.90;;;;;;5135225;27;20080;-57
2021/01/21 10:07:28;;;;;;;4.45;1.38;;;7.10;80.30;;;;;;5135170;27;20050;-57
2021/01/21 10:09:54;;;;;;;5.90;1.48;;;7.20;77.60;;;;;;5135010;27;20055;-56
2021/01/21 10:12:20;;;;;;;6.80;1.98;;;7.30;78.00;;;;;;5134876;27;20083;-56
2021/01/21 10:14:46;;;;;;;6.70;1.55;;;7.40;77.50;;;;;;5134908;27;20043;-56
2021/01/21 10:17:12;;;;;;;11.98;1.90;;;7.50;77.30;;;;;;5134760;27;20058;-56
2021/01/21 10:19:38;;;;;;;7.07;1.45;;;7.70;77.30;;;;;;5134501;27;20035;-56
2021/01/21 10:22:07;;;;;;;8.98;1.60;;;7.60;77.10;;;;;;5134791;27;20104;-56
2021/01/21 10:24:34;;;;;;;;;;;7.60;75.50;;;;;;5135227;27;20039;-57
2021/01/21 10:27:00;;;;;;;11.43;1.60;;;7.80;77.20;;;;;;5133631;27;19945;-56
2021/01/21 10:29:26;;;;;;;6.15;1.65;;;7.80;76.50;;;;;;5134624;27;20426;-56
2021/01/21 10:31:51;;;;;;;12.07;2.03;;;7.80;76.00;;;;;;5134315;27;20047;-56
2021/01/21 10:34:17;;;;;;;9.45;2.20;;;7.90;76.80;;;;;;5134507;27;20043;-56
2021/01/21 10:36:43;;;;;;;10.23;2.50;;;7.80;76.90;;;;;;5134230;27;20053;-56
2021/01/21 10:39:09;;;;;;;5.32;1.63;;;7.80;76.50;;;;;;5134433;27;20039;-56
2021/01/21 10:41:35;;;;;;;11.25;1.88;;;7.80;76.20;;;;;;5134288;27;20070;-56
2021/01/21 10:44:00;;;;;;;9.82;1.90;;;7.80;77.30;;;;;;5134241;27;20552;-56
2021/01/21 10:46:26;;;;;;;14.45;2.17;;;7.80;78.20;;;;;;5134239;27;20039;-56
2021/01/21 10:48:52;;;;;;;8.18;2.38;;;7.90;77.20;;;;;;5134331;27;20047;-56
2021/01/21 10:51:18;;;;;;;10.68;2.28;;;8.00;77.80;;;;;;5134518;27;20075;-55
2021/01/21 10:53:46;;;;;;;13.77;2.38;;;8.00;77.10;;;;;;5133817;27;20047;-56
2021/01/21 10:56:14;;;;;;;11.10;2.15;;;7.80;77.50;;;;;;5133991;27;20059;-55
2021/01/21 10:58:40;;;;;;;11.50;2.13;;;7.80;77.90;;;;;;5133866;27;20164;-56
2021/01/21 11:01:05;;;;;;;16.23;2.38;;;8.00;77.20;;;;;;5133653;27;20134;-56
2021/01/21 11:03:31;;;;;;;7.95;1.77;;;8.10;77.40;;;;;;5133893;27;20039;-56
2021/01/21 11:05:57;;;;;;;10.43;3.00;;;8.20;78.50;;;;;;5133746;27;20361;-56
2021/01/21 11:08:22;;;;;;;16.90;2.35;;;8.20;76.20;;;;;;5133593;27;20054;-56
2021/01/21 11:10:48;;;;;;;12.82;2.72;;;8.20;76.90;;;;;;5133600;27;20054;-55
2021/01/21 11:13:17;;;;;;;9.77;1.77;;;8.10;76.00;;;;;;5133961;27;20054;-56
2021/01/21 11:15:43;;;;;;;;;;;8.00;76.80;;;;;;5133965;27;20035;-56
2021/01/21 11:18:10;;;;;;;11.77;2.50;;;7.90;77.30;;;;;;5133702;27;19926;-56
2021/01/21 11:20:36;;;;;;;10.20;1.90;;;7.90;76.70;;;;;;5133843;27;20047;-56
2021/01/21 11:23:02;;;;;;;12.63;2.67;;;7.80;76.00;;;;;;5133967;27;20065;-56
2021/01/21 11:25:27;;;;;;;11.65;2.45;;;7.80;77.50;;;;;;5133654;27;20039;-55
2021/01/21 11:27:53;;;;;;;11.13;2.25;;;7.80;77.80;;;;;;5133443;27;20395;-56
2021/01/21 11:30:19;;;;;;;13.30;2.10;;;7.80;77.10;;;;;;5133714;27;20058;-56
2021/01/21 11:32:45;;;;;;;12.40;2.25;;;7.80;76.90;;;;;;5133606;27;20043;-56
2021/01/21 11:35:11;;;;;;;8.38;2.15;;;7.90;78.50;;;;;;5133394;27;20043;-56
2021/01/21 11:37:37;;;;;;;10.15;1.83;;;7.90;78.70;;;;;;5133195;27;20049;-56
2021/01/21 11:40:03;;;;;;;9.48;2.55;;;8.00;77.00;;;;;;5133360;27;20043;-56
2021/01/21 11:42:29;;;;;;;5.18;1.75;;;8.00;77.30;;;;;;5133359;27;20039;-56
2021/01/21 11:44:55;;;;;;;11.30;1.90;;;8.00;78.40;;;;;;5133308;27;20088;-56
2021/01/21 11:47:20;;;;;;;6.60;2.25;;;8.00;75.40;;;;;;5133067;27;20045;-56
2021/01/21 11:49:47;;;;;;;10.23;1.85;;;8.00;75.30;;;;;;5137557;27;20399;-56
2021/01/21 11:52:13;;;;;;;10.05;2.13;;;8.00;77.10;;;;;;5133156;27;20039;-56
2021/01/21 11:54:38;;;;;;;8.68;1.50;;;8.10;77.40;;;;;;5133322;28;20441;-55
2021/01/21 11:57:04;;;;;;;13.07;1.83;;;8.10;76.90;;;;;;5132279;27;20051;-56
2021/01/21 11:59:30;;;;;;;10.43;1.85;;;8.10;77.10;;;;;;5132951;28;20098;-56
2021/01/21 12:01:56;;;;;;;7.20;1.77;;;8.10;76.80;;;;;;5132004;28;20046;-55
2021/01/21 12:04:22;;;;;;;10.52;2.20;;;8.10;77.20;;;;;;5132206;27;20039;-56
2021/01/21 12:06:48;;;;;;;13.88;2.28;;;8.20;77.90;;;;;;5132155;28;20039;-56
2021/01/21 12:09:14;;;;;;;8.85;1.77;;;8.10;77.60;;;;;;5110351;28;20396;-56
2021/01/21 12:11:40;;;;;;;9.60;2.13;;;8.00;78.30;;;;;;5132544;28;20184;-56
2021/01/21 12:14:06;;;;;;;9.13;1.83;;;8.00;79.50;;;;;;5132817;27;20126;-56
2021/01/21 12:16:33;;;;;;;11.07;2.10;;;7.90;80.40;;;;;;5132090;27;20405;-56
2021/01/21 12:18:59;;;;;;;7.35;2.03;;;7.90;80.40;;;;;;5132649;28;20070;-56
2021/01/21 12:21:27;;;;;;;11.70;2.00;;;7.80;80.10;;;;;;5131552;27;20035;-55
2021/01/21 12:23:53;;;;;;;13.07;2.22;;;7.90;79.80;;;;;;5132576;27;20139;-55
2021/01/21 12:26:19;;;;;;;7.07;2.05;;;7.90;79.60;;;;;;5132324;27;20122;-56
2021/01/21 12:28:44;;;;;;;9.77;1.85;;;7.90;80.30;;;;;;5132525;27;20556;-55
2021/01/21 12:31:10;;;;;;;8.77;2.22;;;7.90;81.30;;;;;;5132627;27;20039;-56
2021/01/21 12:33:36;;;;;;;8.82;2.70;;;7.80;84.20;;;;;;5132384;27;20046;-55
2021/01/21 12:36:03;;;;;;;6.22;1.63;;;7.80;84.50;;;;;;5132637;27;20534;-55
2021/01/21 12:38:29;;;;;;;9.75;2.08;;;7.80;82.00;;;;;;5132260;27;20039;-56
2021/01/21 12:40:55;;;;;;;8.63;1.67;;;7.80;83.60;;;;;;5132269;28;20100;-56
2021/01/21 12:43:21;;;;;;;13.60;1.70;;;7.90;83.10;;;;;;5132396;28;20043;-56
2021/01/21 12:45:49;;;;;;;9.45;2.13;;;8.00;82.80;;;;;;5132138;27;20476;-55
2021/01/21 12:48:17;;;;;;;8.97;1.90;;;7.90;81.10;;;;;;5132299;27;20138;-56
2021/01/21 12:50:43;;;;;;;9.68;1.63;;;7.90;81.20;;;;;;5134568;27;20074;-56
2021/01/21 12:53:08;;;;;;;4.95;1.38;;;7.90;81.40;;;;;;5136298;27;20053;-56
2021/01/21 12:55:35;;;;;;;8.52;1.77;;;8.00;81.10;;;;;;5135873;27;20054;-56
2021/01/21 12:58:01;;;;;;;9.73;1.65;;;8.00;81.40;;;;;;5135954;27;20039;-56
2021/01/21 13:00:27;;;;;;;7.88;1.35;;;8.00;81.00;;;;;;5136051;27;20067;-56